Time;durP1;ratioP1;P1;durP2;ratioP2;P2;SDS_P1;SDS_P2;PMS_P1;PMS_P2;Temp;Humidity;BMP_temperature;BMP_pressure;BME280_temperature;BME280_humidity;BME280_pressure;Samples;Min_cycle;Max_cycle;Signal;HPM_P1;HPM_P2
2021/08/31 00:00:33;;;;;;;13.93;12.17;;;;;;;18.48;97.44;99788.55;1694771;83;21037;-82
2021/08/31 00:02:59;;;;;;;15.80;11.90;;;;;;;18.54;97.38;99789.15;1698912;83;21202;-83
2021/08/31 00:05:26;;;;;;;13.63;11.27;;;;;;;18.56;97.23;99788.24;1706188;82;21108;-75
2021/08/31 00:07:52;;;;;;;13.17;11.13;;;;;;;18.56;97.13;99792.30;1696265;83;21594;-76
2021/08/31 00:10:21;;;;;;;12.30;10.27;;;;;;;18.55;96.95;99801.55;1694272;83;21022;-76
2021/08/31 00:12:48;;;;;;;14.93;10.53;;;;;;;18.55;96.92;99809.66;1700681;82;20996;-75
2021/08/31 00:15:17;;;;;;;11.30;10.03;;;;;;;18.54;96.82;99816.19;1699918;83;21149;-75
2021/08/31 00:17:45;;;;;;;12.97;10.30;;;;;;;18.51;96.78;99818.98;1707764;82;21023;-75
2021/08/31 00:20:12;;;;;;;12.83;9.97;;;;;;;18.49;96.68;99823.38;1707883;82;21208;-75
2021/08/31 00:22:40;;;;;;;11.20;9.57;;;;;;;18.46;96.62;99830.01;1709443;82;21955;-74
2021/08/31 00:25:08;;;;;;;13.53;10.47;;;;;;;18.42;96.73;99835.25;1708293;82;21090;-76
2021/08/31 00:27:37;;;;;;;14.43;10.93;;;;;;;18.37;96.83;99840.08;1714523;82;21631;-75
2021/08/31 00:30:06;;;;;;;11.60;10.40;;;;;;;18.33;96.84;99822.36;1710418;82;21073;-75
2021/08/31 00:32:32;;;;;;;13.03;11.50;;;;;;;18.32;96.99;99829.44;1707973;81;22212;-75
2021/08/31 00:34:59;;;;;;;11.53;10.33;;;;;;;18.32;97.02;99830.22;1709538;82;21096;-76
2021/08/31 00:37:26;;;;;;;13.43;10.03;;;;;;;18.33;96.90;99836.41;1709002;82;21102;-77
2021/08/31 00:39:55;;;;;;;14.20;10.53;;;;;;;18.28;96.83;99835.48;1710780;82;21075;-76
2021/08/31 00:42:21;;;;;;;14.60;11.63;;;;;;;18.26;96.88;99839.63;1706881;82;21067;-74
2021/08/31 00:44:48;;;;;;;12.13;10.43;;;;;;;18.22;96.98;99842.76;1707903;83;21081;-76
2021/08/31 00:47:15;;;;;;;13.33;10.97;;;;;;;18.21;97.03;99852.78;1696005;82;21575;-74
2021/08/31 00:49:42;;;;;;;13.50;11.00;;;;;;;18.17;97.02;99853.77;1695956;83;21121;-74
2021/08/31 00:52:10;;;;;;;15.07;11.27;;;;;;;18.15;97.23;99852.72;1708549;82;21112;-74
2021/08/31 00:54:36;;;;;;;13.20;10.60;;;;;;;18.16;97.36;99857.56;1649816;82;21265;-74
2021/08/31 00:57:05;;;;;;;13.70;10.93;;;;;;;18.15;97.47;99855.42;1708840;82;21072;-74
2021/08/31 00:59:33;;;;;;;12.37;10.20;;;;;;;18.13;97.41;99855.52;1715500;81;21119;-75
2021/08/31 01:02:00;;;;;;;14.17;11.43;;;;;;;18.13;97.58;99859.56;1706216;82;21641;-76
2021/08/31 01:04:30;;;;;;;16.27;12.00;;;;;;;18.13;97.58;99855.52;1695217;83;21062;-76
2021/08/31 01:06:58;;;;;;;11.28;9.70;;;;;;;18.15;97.64;99862.75;1712016;82;21083;-76
2021/08/31 01:09:27;;;;;;;15.10;10.87;;;;;;;18.16;97.65;99857.56;1692982;83;21058;-76
2021/08/31 01:11:56;;;;;;;11.93;10.43;;;;;;;18.14;97.64;99859.81;1715569;81;24914;-75
2021/08/31 01:14:24;;;;;;;13.00;10.23;;;;;;;18.10;97.70;99861.56;1708903;82;21086;-76
2021/08/31 01:16:50;;;;;;;12.30;10.43;;;;;;;18.09;97.85;99868.09;1701842;82;21191;-76
2021/08/31 01:19:20;;;;;;;13.33;11.00;;;;;;;18.10;97.94;99864.27;1672497;84;21211;-77
2021/08/31 01:21:47;;;;;;;14.97;11.67;;;;;;;18.10;97.98;99872.37;1699846;82;21032;-77
2021/08/31 01:24:13;;;;;;;14.00;11.27;;;;;;;18.13;97.99;99869.02;1695622;83;21318;-77
2021/08/31 01:26:42;;;;;;;14.57;11.30;;;;;;;18.13;97.97;99864.44;1704395;82;21065;-76
2021/08/31 01:29:11;;;;;;;13.87;10.67;;;;;;;18.15;97.97;99861.39;1694820;83;21015;-76
2021/08/31 01:31:39;;;;;;;13.63;10.30;;;;;;;18.16;97.83;99871.08;1702551;82;21181;-75
2021/08/31 01:34:05;;;;;;;14.23;11.60;;;;;;;18.13;97.78;99871.73;1694511;83;21021;-75
2021/08/31 01:36:32;;;;;;;16.73;12.80;;;;;;;18.07;97.83;99868.43;1701445;82;21521;-74
2021/08/31 01:38:58;;;;;;;15.93;12.53;;;;;;;18.02;97.94;99873.44;1674256;84;21081;-74
2021/08/31 01:41:26;;;;;;;13.77;10.90;;;;;;;17.99;98.13;99871.94;1691648;83;21536;-75
2021/08/31 01:43:53;;;;;;;13.73;10.17;;;;;;;17.97;98.24;99872.28;1693005;83;21635;-75
2021/08/31 01:46:19;;;;;;;13.30;9.83;;;;;;;17.98;98.41;99873.85;1704755;81;21680;-74
2021/08/31 01:48:46;;;;;;;10.70;9.20;;;;;;;17.95;98.10;99875.84;1669179;83;21116;-76
2021/08/31 01:51:13;;;;;;;12.60;9.63;;;;;;;17.94;98.00;99871.57;1692027;83;21799;-76
2021/08/31 01:53:40;;;;;;;12.87;9.37;;;;;;;17.92;97.72;99881.11;1702562;82;21072;-76
2021/08/31 01:56:07;;;;;;;9.47;8.03;;;;;;;17.87;97.67;99885.31;1692766;83;21139;-75
2021/08/31 01:58:33;;;;;;;9.50;8.40;;;;;;;17.85;97.84;99885.66;1698831;82;21088;-77
2021/08/31 02:01:00;;;;;;;10.77;8.70;;;;;;;17.80;97.79;99895.27;1696162;83;21648;-75
2021/08/31 02:03:26;;;;;;;12.90;9.17;;;;;;;17.74;97.85;99891.93;1701191;82;21080;-76
2021/08/31 02:05:56;;;;;;;10.60;8.23;;;;;;;17.72;97.79;99888.75;1673913;85;21494;-76
2021/08/31 02:08:23;;;;;;;9.13;7.27;;;;;;;17.69;97.94;99885.89;1674405;84;21072;-73
2021/08/31 02:10:51;;;;;;;11.73;8.87;;;;;;;17.66;98.06;99886.53;1698283;83;21121;-74
2021/08/31 02:13:18;;;;;;;11.40;9.30;;;;;;;17.61;97.94;99885.37;1671844;84;21156;-74
2021/08/31 02:15:45;;;;;;;9.73;7.60;;;;;;;17.58;98.14;99895.69;1695723;83;21081;-74
2021/08/31 02:18:11;;;;;;;12.33;8.73;;;;;;;17.58;98.30;99891.63;1696208;83;21079;-73
2021/08/31 02:20:39;;;;;;;11.20;8.90;;;;;;;17.55;98.43;99885.52;1694018;83;21703;-73
2021/08/31 02:23:06;;;;;;;12.00;9.10;;;;;;;17.57;98.58;99892.75;1702254;82;21093;-73
2021/08/31 02:25:33;;;;;;;10.90;8.27;;;;;;;17.56;98.66;99895.20;1704396;82;21981;-73
2021/08/31 02:27:59;;;;;;;13.73;9.90;;;;;;;17.52;98.62;99887.51;1710124;82;21041;-74
2021/08/31 02:30:26;;;;;;;13.27;9.47;;;;;;;17.52;98.62;99888.06;1695987;83;21082;-73
2021/08/31 02:32:56;;;;;;;12.00;9.73;;;;;;;17.54;98.75;99890.69;1695011;83;21113;-74
2021/08/31 02:35:21;;;;;;;10.37;8.37;;;;;;;17.57;98.84;99884.66;1695082;83;21138;-73
2021/08/31 02:37:48;;;;;;;11.20;9.00;;;;;;;17.63;98.87;99884.47;1694725;83;21658;-74
2021/08/31 02:40:15;;;;;;;12.03;9.30;;;;;;;17.67;98.81;99878.66;1690763;83;21608;-74
2021/08/31 02:42:42;;;;;;;10.30;8.67;;;;;;;17.69;98.64;99883.98;1693135;83;21967;-74
2021/08/31 02:45:10;;;;;;;12.80;9.40;;;;;;;17.73;98.38;99874.68;1698753;83;21054;-74
2021/08/31 02:47:36;;;;;;;12.70;9.93;;;;;;;17.73;98.14;99881.43;1697089;83;21053;-74
2021/08/31 02:50:05;;;;;;;11.80;9.63;;;;;;;17.75;97.94;99875.95;1698366;83;21082;-73
2021/08/31 02:52:31;;;;;;;13.63;9.97;;;;;;;17.77;97.69;99883.78;1718071;82;21140;-74
2021/08/31 02:54:58;;;;;;;13.37;10.07;;;;;;;17.78;97.40;99884.01;1674550;84;21097;-73
2021/08/31 02:57:25;;;;;;;11.63;9.23;;;;;;;17.77;97.25;99887.83;1692007;83;21145;-74
2021/08/31 02:59:51;;;;;;;12.20;9.90;;;;;;;17.78;97.21;99894.81;1705560;82;20973;-73
2021/08/31 03:02:18;;;;;;;11.67;9.60;;;;;;;17.77;97.28;99898.08;1676057;84;21795;-73
2021/08/31 03:04:46;;;;;;;13.23;9.97;;;;;;;17.78;97.23;99911.02;1695063;83;21692;-73
2021/08/31 03:07:14;;;;;;;14.90;9.57;;;;;;;17.76;97.07;99914.02;1693205;83;21545;-74
2021/08/31 03:09:43;;;;;;;12.60;9.90;;;;;;;17.74;97.07;99918.16;1705919;83;21035;-72
2021/08/31 03:12:10;;;;;;;15.57;10.33;;;;;;;17.69;97.21;99917.74;1712220;82;21011;-72
2021/08/31 03:14:37;;;;;;;14.35;11.61;;;;;;;17.67;97.31;99920.52;1596781;81;10000511;-71
2021/08/31 03:17:05;;;;;;;14.57;11.40;;;;;;;17.59;96.99;99923.48;1711570;82;20962;-72
2021/08/31 03:19:31;;;;;;;12.47;9.97;;;;;;;17.50;96.91;99923.47;1712854;82;20940;-73
2021/08/31 03:22:00;;;;;;;15.93;11.13;;;;;;;17.43;96.81;99929.91;1712190;82;21059;-73
2021/08/31 03:24:27;;;;;;;12.43;10.47;;;;;;;17.34;96.75;99926.41;1730164;80;21146;-72
2021/08/31 03:26:55;;;;;;;15.77;10.43;;;;;;;17.28;96.82;99930.41;1741981;80;21051;-73
2021/08/31 03:29:22;;;;;;;14.73;10.20;;;;;;;17.25;96.96;99922.38;1737095;80;21142;-73
2021/08/31 03:31:48;;;;;;;14.20;10.57;;;;;;;17.21;96.54;99930.88;1751247;80;21027;-73
2021/08/31 03:34:15;;;;;;;11.77;9.40;;;;;;;17.13;96.29;99929.50;1749175;80;21069;-75
2021/08/31 03:36:42;;;;;;;13.27;10.67;;;;;;;17.04;96.37;99924.09;1709384;82;21514;-74
2021/08/31 03:39:08;;;;;;;12.87;9.47;;;;;;;16.98;96.41;99932.09;1738019;80;21019;-73
2021/08/31 03:41:35;;;;;;;14.50;10.90;;;;;;;16.94;96.55;99927.09;1745478;80;21051;-73
2021/08/31 03:44:04;;;;;;;14.43;10.47;;;;;;;16.92;96.69;99926.63;1750986;80;21057;-72
2021/08/31 03:46:32;;;;;;;11.33;9.37;;;;;;;16.92;96.99;99922.58;1742174;81;21051;-73
2021/08/31 03:49:02;;;;;;;11.63;9.63;;;;;;;16.91;97.05;99920.41;1745371;80;21034;-73
2021/08/31 03:51:29;;;;;;;12.07;9.03;;;;;;;16.90;97.22;99916.70;1748206;80;21565;-72
2021/08/31 03:53:57;;;;;;;12.50;10.10;;;;;;;16.86;97.41;99921.92;1747210;80;21641;-72
2021/08/31 03:56:24;;;;;;;12.67;9.17;;;;;;;16.83;97.61;99915.25;1739644;80;21045;-72
2021/08/31 03:58:51;;;;;;;12.03;9.20;;;;;;;16.85;97.79;99920.34;1740449;80;21045;-72
2021/08/31 04:01:18;;;;;;;11.13;8.87;;;;;;;16.86;97.71;99932.72;1737506;81;21455;-72
2021/08/31 04:03:45;;;;;;;12.57;9.50;;;;;;;16.84;97.62;99924.92;1725585;80;21706;-73
2021/08/31 04:06:12;;;;;;;10.83;8.23;;;;;;;16.81;97.65;99917.48;1738000;80;21074;-73
2021/08/31 04:08:40;;;;;;;11.77;8.80;;;;;;;16.82;97.71;99920.97;1743343;80;21502;-73
2021/08/31 04:11:06;;;;;;;11.60;8.00;;;;;;;16.84;97.65;99924.13;1741306;80;21008;-73
2021/08/31 04:13:33;;;;;;;12.10;8.93;;;;;;;16.87;97.50;99932.39;1709033;82;21137;-73
2021/08/31 04:15:59;;;;;;;11.07;8.73;;;;;;;16.90;97.32;99934.23;1712943;82;21148;-73
2021/08/31 04:18:27;;;;;;;12.60;8.83;;;;;;;16.94;97.10;99939.23;1714221;82;21018;-72
2021/08/31 04:20:54;;;;;;;10.30;8.30;;;;;;;16.96;96.82;99935.11;1706031;82;21035;-74
2021/08/31 04:23:20;;;;;;;8.87;6.87;;;;;;;17.00;96.50;99946.06;1739653;80;20991;-73
2021/08/31 04:25:47;;;;;;;11.00;7.63;;;;;;;17.03;95.91;99938.70;1737843;80;22507;-73
2021/08/31 04:28:14;;;;;;;9.53;6.87;;;;;;;17.05;95.70;99935.93;1734391;81;21054;-73
2021/08/31 04:30:42;;;;;;;12.57;7.77;;;;;;;17.10;95.44;99940.37;1738654;81;21118;-73
2021/08/31 04:33:09;;;;;;;12.37;8.70;;;;;;;17.12;95.22;99934.11;1732311;81;21636;-73
2021/08/31 04:35:36;;;;;;;10.97;8.23;;;;;;;17.15;94.96;99931.34;1730763;81;21062;-72
2021/08/31 04:38:02;;;;;;;9.47;7.40;;;;;;;17.16;94.68;99938.32;1739447;81;21561;-73
2021/08/31 04:40:29;;;;;;;10.23;7.20;;;;;;;17.16;94.21;99925.62;1741682;81;21055;-73
2021/08/31 04:42:55;;;;;;;10.63;7.10;;;;;;;17.18;93.88;99936.91;1738706;81;21026;-73
2021/08/31 04:45:22;;;;;;;9.17;6.80;;;;;;;17.19;93.45;99935.78;1734382;80;21002;-73
2021/08/31 04:47:49;;;;;;;9.20;7.77;;;;;;;17.20;92.99;99935.22;1746671;81;21416;-73
2021/08/31 04:50:15;;;;;;;9.13;7.27;;;;;;;17.16;92.32;99935.62;1745822;80;22113;-73
2021/08/31 04:52:45;;;;;;;10.27;7.70;;;;;;;17.10;92.07;99933.63;1737742;80;21015;-73
2021/08/31 04:55:13;;;;;;;9.07;6.97;;;;;;;17.06;91.66;99940.77;1750669;81;21047;-74
2021/08/31 04:57:41;;;;;;;9.93;7.30;;;;;;;17.00;91.09;99942.81;1745695;80;21050;-72
2021/08/31 05:00:10;;;;;;;9.47;7.07;;;;;;;16.98;90.91;99942.88;1749568;80;21003;-74
2021/08/31 05:02:36;;;;;;;8.57;6.43;;;;;;;16.97;90.84;99944.00;1751714;80;21637;-73
2021/08/31 05:05:43;;;;;;;10.47;7.03;;;;;;;17.02;90.97;99957.34;1748609;82;20999;-72
2021/08/31 05:08:39;;;;;;;7.83;6.53;;;;;;;17.05;90.25;99949.98;1746648;80;21139;-73
2021/08/31 05:11:06;;;;;;;9.70;6.63;;;;;;;17.08;89.15;99944.74;1740574;80;21537;-72
2021/08/31 05:13:39;;;;;;;9.30;6.80;;;;;;;17.08;87.56;99950.70;1740947;80;21577;-72
2021/08/31 05:16:02;;;;;;;9.27;7.07;;;;;;;17.08;87.74;99958.23;1731071;80;21534;-73
2021/08/31 05:18:31;;;;;;;10.57;7.23;;;;;;;17.10;87.81;99965.44;1748913;80;20963;-74
2021/08/31 05:20:58;;;;;;;9.50;7.33;;;;;;;17.10;87.46;99961.95;1750733;80;21124;-73
2021/08/31 05:31:54;;;;;;;9.13;7.77;;;;;;;17.23;86.96;99975.08;1745574;80;21652;-74
2021/08/31 05:34:21;;;;;;;10.27;6.90;;;;;;;17.30;86.43;99965.95;1730144;80;21429;-73
2021/08/31 05:36:48;;;;;;;9.97;6.57;;;;;;;17.34;85.75;99968.25;1746104;80;21004;-74
2021/08/31 05:39:14;;;;;;;7.63;5.93;;;;;;;17.39;84.34;99971.37;1746614;80;20980;-73
2021/08/31 05:41:41;;;;;;;7.93;6.10;;;;;;;17.40;83.36;99971.59;1745785;80;20987;-73
2021/08/31 05:44:07;;;;;;;9.90;6.30;;;;;;;17.40;82.75;99960.80;1745216;80;21163;-72
2021/08/31 05:46:34;;;;;;;8.73;6.20;;;;;;;17.40;82.75;99970.25;1746663;80;21043;-73
2021/08/31 05:49:01;;;;;;;7.93;5.87;;;;;;;17.41;82.40;99971.30;1741142;80;21098;-73
2021/08/31 05:51:27;;;;;;;8.07;6.03;;;;;;;17.43;81.81;99963.66;1744552;81;21579;-73
2021/08/31 05:53:55;;;;;;;8.43;6.17;;;;;;;17.48;81.32;99966.77;1746817;82;21055;-72
2021/08/31 05:56:22;;;;;;;8.77;6.20;;;;;;;17.53;81.19;99967.39;1746988;80;21126;-72
2021/08/31 05:58:48;;;;;;;8.93;5.67;;;;;;;17.59;80.73;99967.47;1736722;82;20983;-72
2021/08/31 06:01:15;;;;;;;7.50;5.63;;;;;;;17.67;79.68;99967.25;1740111;80;21014;-73
2021/08/31 06:03:43;;;;;;;8.47;5.60;;;;;;;17.70;78.81;99969.84;1747797;81;21067;-73
2021/08/31 06:06:09;;;;;;;7.93;5.60;;;;;;;17.75;78.44;99962.95;1747637;80;21054;-73
2021/08/31 06:08:36;;;;;;;8.07;5.03;;;;;;;17.80;77.66;99963.62;1746246;80;21077;-74
2021/08/31 06:11:04;;;;;;;7.23;5.43;;;;;;;17.85;77.57;99961.30;1742793;80;21043;-72
2021/08/31 06:13:30;;;;;;;6.23;4.87;;;;;;;17.89;77.12;99964.94;1742591;80;21043;-73
2021/08/31 06:15:57;;;;;;;6.33;4.80;;;;;;;17.94;76.31;99961.30;1743734;80;21094;-73
2021/08/31 06:18:29;;;;;;;8.00;5.03;;;;;;;17.99;75.91;99967.30;1744791;82;21059;-73
2021/08/31 06:20:56;;;;;;;8.47;5.10;;;;;;;18.02;75.18;99965.88;1743426;80;21972;-71
2021/08/31 06:23:33;;;;;;;6.60;4.87;;;;;;;18.08;75.02;99969.21;1740309;81;21516;-74
2021/08/31 06:25:55;;;;;;;8.50;5.30;;;;;;;18.12;73.96;99972.28;1733945;80;21067;-73
2021/08/31 06:28:22;;;;;;;6.70;5.33;;;;;;;18.17;74.31;99968.08;1739404;80;21105;-74
2021/08/31 06:30:51;;;;;;;6.93;4.73;;;;;;;18.24;74.57;99970.28;1730185;80;21518;-72
2021/08/31 06:33:17;;;;;;;7.00;4.83;;;;;;;18.33;74.60;99968.36;1737860;80;21520;-72
2021/08/31 06:35:44;;;;;;;7.80;5.40;;;;;;;18.41;74.51;99962.11;1739628;80;21678;-73
2021/08/31 06:38:10;;;;;;;8.23;5.10;;;;;;;18.53;73.88;99971.47;1742747;80;21040;-77
2021/08/31 06:40:37;;;;;;;7.37;4.70;;;;;;;18.62;73.82;99974.91;1734813;80;21039;-75
2021/08/31 06:43:04;;;;;;;8.27;5.43;;;;;;;18.71;72.98;99982.44;1734314;81;21590;-73
2021/08/31 06:45:32;;;;;;;7.13;4.93;;;;;;;18.77;71.65;99977.11;1735688;81;21146;-73
2021/08/31 06:47:58;;;;;;;8.33;5.00;;;;;;;18.80;70.96;99985.14;1737523;81;21725;-73
2021/08/31 06:50:25;;;;;;;8.63;4.90;;;;;;;18.84;70.48;99974.68;1733973;81;21368;-71
2021/08/31 06:52:52;;;;;;;6.40;4.70;;;;;;;18.87;70.86;99978.09;1734068;80;21061;-72
2021/08/31 06:55:19;;;;;;;6.97;4.83;;;;;;;18.94;70.53;99981.07;1738271;80;21065;-73
2021/08/31 06:57:47;;;;;;;8.03;4.60;;;;;;;19.03;70.51;99978.33;1745390;80;21186;-72
2021/08/31 07:00:14;;;;;;;7.17;5.17;;;;;;;19.12;69.83;99982.34;1746305;80;20995;-73
2021/08/31 07:02:40;;;;;;;6.90;5.90;;;;;;;19.20;69.34;99977.42;1743451;80;21062;-75
2021/08/31 07:05:07;;;;;;;5.30;4.37;;;;;;;19.24;69.32;99981.05;1742810;80;21094;-72
2021/08/31 07:07:34;;;;;;;5.93;5.20;;;;;;;19.28;68.48;99979.30;1741552;80;21599;-73
2021/08/31 07:10:01;;;;;;;7.13;4.37;;;;;;;19.32;67.91;99988.91;1748661;80;40366;-72
2021/08/31 07:12:27;;;;;;;6.70;5.20;;;;;;;19.37;68.25;99985.42;1748815;81;21039;-72
2021/08/31 07:14:54;;;;;;;9.27;5.17;;;;;;;19.46;68.67;99985.36;1749820;80;21043;-73
2021/08/31 07:17:21;;;;;;;6.47;5.40;;;;;;;19.52;68.36;99981.91;1745938;81;21528;-71
2021/08/31 07:19:48;;;;;;;7.90;5.37;;;;;;;19.55;67.86;99988.02;1744625;80;21427;-73
2021/08/31 07:22:17;;;;;;;9.63;5.70;;;;;;;19.54;68.23;99991.27;1754149;80;21159;-73
2021/08/31 07:24:44;;;;;;;6.53;5.50;;;;;;;19.59;67.91;99987.02;1727320;82;21083;-74
2021/08/31 07:27:12;;;;;;;6.80;5.43;;;;;;;19.64;67.01;99988.75;1738174;80;21503;-72
2021/08/31 07:29:38;;;;;;;5.97;5.00;;;;;;;19.67;67.23;99991.59;1741355;80;21046;-73
2021/08/31 07:32:06;;;;;;;6.00;5.03;;;;;;;19.76;67.52;99983.39;1745845;80;21006;-72
2021/08/31 07:34:33;;;;;;;8.30;5.10;;;;;;;19.87;66.64;99992.72;1743406;80;21142;-74
2021/08/31 07:37:01;;;;;;;6.67;4.70;;;;;;;19.91;66.01;99986.85;1731208;81;21517;-72
2021/08/31 07:39:28;;;;;;;7.00;4.87;;;;;;;19.97;66.08;99983.34;1732552;81;21592;-74
2021/08/31 07:41:55;;;;;;;6.10;4.60;;;;;;;20.07;66.02;99982.14;1734435;81;21058;-73
2021/08/31 07:44:22;;;;;;;6.07;4.40;;;;;;;20.13;64.49;100004.64;1738312;81;21054;-75
2021/08/31 07:46:50;;;;;;;7.30;4.60;;;;;;;20.18;64.48;99993.37;1742647;80;21129;-74
2021/08/31 07:49:19;;;;;;;6.80;4.30;;;;;;;20.28;64.52;99999.73;1733103;80;21018;-72
2021/08/31 07:51:47;;;;;;;8.47;5.60;;;;;;;20.37;64.20;99998.50;1744907;80;21502;-72
2021/08/31 07:54:14;;;;;;;6.47;5.10;;;;;;;20.43;64.60;99996.91;1743034;80;21101;-73
2021/08/31 07:56:42;;;;;;;5.33;4.10;;;;;;;20.49;64.49;99992.29;1740223;80;21565;-73
2021/08/31 07:59:09;;;;;;;4.77;4.00;;;;;;;20.51;63.14;99987.36;1739679;81;21511;-73
2021/08/31 08:01:35;;;;;;;4.80;4.23;;;;;;;20.50;62.97;100011.53;1735725;80;21536;-74
2021/08/31 08:04:03;;;;;;;5.57;4.60;;;;;;;20.54;63.24;100001.61;1700728;82;21081;-72
2021/08/31 08:06:30;;;;;;;5.60;4.70;;;;;;;20.62;63.18;99997.20;1698941;82;21102;-76
2021/08/31 08:08:56;;;;;;;5.53;4.10;;;;;;;20.60;62.93;99997.55;1701777;82;21150;-75
2021/08/31 08:11:23;;;;;;;5.37;4.07;;;;;;;20.61;63.30;99995.63;1736739;80;21178;-72
2021/08/31 08:13:49;;;;;;;5.47;4.57;;;;;;;20.69;63.79;99993.36;1726681;81;21528;-73
2021/08/31 08:16:16;;;;;;;5.20;3.70;;;;;;;20.77;62.66;99996.54;1732157;81;22183;-75
2021/08/31 08:18:43;;;;;;;5.40;3.80;;;;;;;20.80;60.53;99989.08;1730941;81;21616;-74
2021/08/31 08:21:10;;;;;;;4.63;3.63;;;;;;;20.76;59.44;99997.68;1724790;81;21652;-74
2021/08/31 08:23:37;;;;;;;5.23;4.07;;;;;;;20.78;60.25;99999.47;1729724;80;21161;-73
2021/08/31 08:26:04;;;;;;;5.13;3.63;;;;;;;20.88;60.77;99996.09;1743330;80;21549;-72
2021/08/31 08:28:31;;;;;;;5.07;3.10;;;;;;;20.99;59.44;99993.13;1737264;81;21050;-72
2021/08/31 08:30:57;;;;;;;4.40;3.50;;;;;;;21.07;58.47;99994.95;1731354;81;21585;-72
2021/08/31 08:33:24;;;;;;;6.70;4.00;;;;;;;21.12;58.54;99989.27;1729229;81;21666;-74
2021/08/31 08:35:52;;;;;;;5.43;4.30;;;;;;;21.23;59.13;99996.41;1729735;81;21075;-77
2021/08/31 08:38:20;;;;;;;4.73;4.00;;;;;;;21.34;59.95;100008.94;1740782;80;21007;-76
2021/08/31 08:40:47;;;;;;;5.50;4.40;;;;;;;21.45;60.16;100008.70;1739201;81;21090;-75
2021/08/31 08:43:14;;;;;;;7.10;4.67;;;;;;;21.52;58.23;100007.58;1746854;80;21152;-74
2021/08/31 08:45:49;;;;;;;4.97;4.17;;;;;;;21.44;58.32;100003.84;1731862;81;21125;-76
2021/08/31 08:48:24;;;;;;;5.57;3.80;;;;;;;21.38;58.21;100004.42;1734758;81;21290;-77
2021/08/31 08:50:54;;;;;;;6.23;4.07;;;;;;;21.36;57.76;99994.48;1697742;82;21082;-76
2021/08/31 08:53:22;;;;;;;6.10;4.30;;;;;;;21.34;58.49;100022.52;1738467;81;21059;-77
2021/08/31 08:55:50;;;;;;;5.03;3.80;;;;;;;21.32;58.73;99999.76;1747921;80;21090;-76
2021/08/31 08:58:17;;;;;;;5.63;3.83;;;;;;;21.37;58.83;100004.21;1748840;80;21145;-73
2021/08/31 09:01:00;;;;;;;4.97;3.97;;;;;;;21.42;58.53;99997.98;1720240;82;21197;-74
2021/08/31 09:03:26;;;;;;;4.80;3.60;;;;;;;21.47;57.65;100018.67;1745301;80;22076;-73
2021/08/31 09:06:18;;;;;;;5.23;4.00;;;;;;;21.51;57.22;100014.13;1746293;80;21042;-72
2021/08/31 09:08:57;;;;;;;4.97;4.07;;;;;;;21.54;57.49;100005.30;1746974;80;21078;-72
2021/08/31 09:11:29;;;;;;;6.43;3.97;;;;;;;21.60;57.41;99999.84;1741159;80;21049;-71
2021/08/31 09:14:28;;;;;;;5.00;4.00;;;;;;;21.67;57.12;100000.05;1706501;82;21616;-73
2021/08/31 09:17:04;;;;;;;5.90;4.00;;;;;;;21.74;58.02;100000.81;1744255;80;21086;-72
2021/08/31 09:19:43;;;;;;;5.20;3.60;;;;;;;21.87;57.79;100001.56;1742233;80;21527;-74
2021/08/31 09:22:22;;;;;;;4.43;3.57;;;;;;;21.96;56.86;100006.28;1721500;81;21035;-73
2021/08/31 09:25:11;;;;;;;5.83;4.17;;;;;;;22.03;55.41;100001.61;1707512;82;21153;-71
2021/08/31 09:27:43;;;;;;;3.70;3.03;;;;;;;22.06;55.83;100003.06;1745096;81;21156;-72
2021/08/31 09:30:25;;;;;;;4.63;3.20;;;;;;;22.10;54.91;100007.23;1691935;83;21105;-71
2021/08/31 09:33:06;;;;;;;;;;;;;;;22.09;55.61;100001.02;1746145;80;21034;-72
2021/08/31 09:35:40;;;;;;;4.70;3.03;;;;;;;22.21;55.66;100000.98;1705215;81;20194;-78
2021/08/31 09:38:11;;;;;;;3.77;3.07;;;;;;;22.26;54.98;99999.92;1703801;82;21061;-77
2021/08/31 09:40:41;;;;;;;4.78;3.00;;;;;;;22.24;53.74;100007.09;1745968;81;27151;-76
2021/08/31 09:43:14;;;;;;;5.10;2.97;;;;;;;22.20;53.65;100010.27;1746983;81;21045;-76
2021/08/31 09:45:41;;;;;;;4.20;2.90;;;;;;;22.15;53.57;100012.44;1746034;80;21087;-81
2021/08/31 09:48:11;;;;;;;4.27;3.03;;;;;;;22.11;52.92;100010.98;1695023;82;21100;-77
2021/08/31 09:50:44;;;;;;;4.70;2.73;;;;;;;22.12;52.55;100016.63;1700289;83;21110;-77
2021/08/31 09:53:25;;;;;;;5.87;2.90;;;;;;;22.13;52.15;100016.84;1738765;81;21167;-77
2021/08/31 09:56:08;;;;;;;3.30;2.43;;;;;;;22.12;53.06;100011.20;1747073;80;20936;-78
2021/08/31 09:58:38;;;;;;;3.30;2.20;;;;;;;22.17;51.81;100016.97;1741296;80;20987;-76
2021/08/31 10:01:05;;;;;;;3.40;2.47;;;;;;;22.20;51.47;100022.50;1743239;81;21050;-76
2021/08/31 10:03:33;;;;;;;3.60;2.43;;;;;;;22.32;51.36;100023.59;1744441;80;21431;-77
2021/08/31 10:06:02;;;;;;;4.47;2.40;;;;;;;22.33;50.91;100019.72;1749101;81;21796;-76
2021/08/31 10:08:34;;;;;;;3.30;2.20;;;;;;;22.23;51.47;100025.11;1738476;80;21030;-77
2021/08/31 10:11:03;;;;;;;3.93;2.60;;;;;;;22.15;50.48;100017.33;1741095;81;21043;-78
2021/08/31 10:13:36;;;;;;;3.77;2.40;;;;;;;22.10;51.62;100018.90;1727995;81;21566;-80
2021/08/31 10:16:04;;;;;;;3.12;2.00;;;;;;;22.13;50.39;100023.65;1734149;81;20991;-77
2021/08/31 10:18:30;;;;;;;4.73;2.60;;;;;;;22.17;50.52;100024.55;1731639;81;21538;-81
2021/08/31 10:21:11;;;;;;;3.20;2.40;;;;;;;22.16;50.88;100014.03;1736847;81;21636;-82
2021/08/31 10:23:42;;;;;;;3.60;2.50;;;;;;;22.14;50.21;100017.06;1733517;81;22272;-80
2021/08/31 10:26:28;;;;;;;;;;;;;;;22.13;49.95;100018.78;1734212;81;21499;-81
2021/08/31 10:29:23;;;;;;;3.10;2.50;;;;;;;22.16;49.88;100008.02;1747791;80;20163;-78
2021/08/31 10:31:53;;;;;;;3.77;2.37;;;;;;;22.27;49.72;100011.59;1745965;82;21042;-76
2021/08/31 10:34:39;;;;;;;4.33;2.67;;;;;;;22.46;49.98;100016.58;1746552;80;20939;-78
2021/08/31 10:37:10;;;;;;;4.00;2.40;;;;;;;22.61;49.44;100006.84;1745608;80;21100;-77
2021/08/31 10:39:50;;;;;;;3.33;2.20;;;;;;;22.80;50.36;100013.50;1696794;82;21060;-77
2021/08/31 10:42:35;;;;;;;2.90;2.23;;;;;;;22.89;47.84;100023.06;1744634;80;21019;-76
2021/08/31 10:45:06;;;;;;;3.20;2.40;;;;;;;22.81;48.43;100019.19;1740885;80;21157;-77
2021/08/31 10:47:34;;;;;;;5.25;2.20;;;;;;;22.65;48.95;100024.63;1734001;80;21003;-75
2021/08/31 10:50:08;;;;;;;3.20;2.50;;;;;;;22.44;48.64;100019.41;1741374;80;21068;-75
2021/08/31 10:52:50;;;;;;;2.97;2.37;;;;;;;22.32;49.50;100027.67;1740605;81;21023;-73
2021/08/31 10:55:29;;;;;;;3.70;2.80;;;;;;;22.37;49.77;100031.48;1743300;81;21022;-74
2021/08/31 10:57:58;;;;;;;4.43;3.10;;;;;;;22.53;49.62;100031.50;1740770;80;21097;-74
2021/08/31 11:00:30;;;;;;;4.03;2.80;;;;;;;22.56;49.43;100026.16;1744362;80;21095;-75
2021/08/31 11:02:59;;;;;;;3.70;2.90;;;;;;;22.58;49.76;100033.98;1740943;80;21026;-75
2021/08/31 11:05:29;;;;;;;4.67;3.37;;;;;;;22.51;50.09;100042.76;1743140;81;21058;-76
2021/08/31 11:08:03;;;;;;;3.60;3.10;;;;;;;22.43;50.76;100026.80;1742072;80;21340;-76
2021/08/31 11:10:45;;;;;;;3.53;3.10;;;;;;;22.51;51.08;100038.67;1743776;80;21502;-75
2021/08/31 11:13:16;;;;;;;;;;;;;;;22.54;49.63;100031.17;1749311;80;21565;-75
2021/08/31 11:15:49;;;;;;;4.10;3.20;;;;;;;22.54;49.51;100028.99;1744145;80;20163;-76
2021/08/31 11:18:20;;;;;;;4.37;3.20;;;;;;;22.62;49.24;100045.74;1747153;80;21134;-75
2021/08/31 11:20:47;;;;;;;4.25;3.20;;;;;;;22.65;48.89;100033.58;1733259;81;21089;-74
2021/08/31 11:23:20;;;;;;;4.07;2.90;;;;;;;22.72;48.94;100031.60;1741212;80;21205;-77
2021/08/31 11:25:55;;;;;;;3.67;2.87;;;;;;;22.78;48.30;100034.29;1733991;81;21471;-78
2021/08/31 11:28:26;;;;;;;4.07;2.80;;;;;;;22.74;48.15;100029.88;1748425;80;21324;-77
2021/08/31 11:31:11;;;;;;;3.67;3.00;;;;;;;22.65;47.74;100040.38;1743640;80;21064;-79
2021/08/31 11:33:40;;;;;;;3.00;2.60;;;;;;;22.51;47.69;100026.42;1743189;81;21102;-80
2021/08/31 11:36:16;;;;;;;3.40;2.63;;;;;;;22.47;48.18;100035.86;1746779;80;21070;-80
2021/08/31 11:38:46;;;;;;;3.67;3.00;;;;;;;22.51;47.55;100044.12;1730845;80;21066;-76
2021/08/31 11:41:35;;;;;;;3.10;2.57;;;;;;;22.49;47.23;100032.78;1745932;80;21059;-77
2021/08/31 11:44:18;;;;;;;3.00;2.50;;;;;;;22.48;47.45;100031.99;1732025;80;21047;-78